Time;durP1;ratioP1;P1;durP2;ratioP2;P2;SDS_P1;SDS_P2;PMS_P1;PMS_P2;Temp;Humidity;BMP_temperature;BMP_pressure;BME280_temperature;BME280_humidity;BME280_pressure;Samples;Min_cycle;Max_cycle;Signal;HPM_P1;HPM_P2
2022/10/28 00:01:33;;;;;;;1999.90;999.90;;;18.20;99.90;;;;;;5034907;28;20420;-83
2022/10/28 00:04:00;;;;;;;1999.90;999.90;;;18.20;99.90;;;;;;5034725;28;20128;-83
2022/10/28 00:06:31;;;;;;;1999.90;999.90;;;18.10;99.90;;;;;;5021530;28;20034;-83
2022/10/28 00:08:57;;;;;;;1999.90;999.90;;;18.10;99.90;;;;;;5014957;28;20503;-84
2022/10/28 00:11:31;;;;;;;1999.90;999.90;;;18.10;99.90;;;;;;5014940;28;20508;-83
2022/10/28 00:14:00;;;;;;;1999.90;999.90;;;18.00;99.90;;;;;;5015693;28;20032;-83
2022/10/28 00:16:31;;;;;;;1999.90;999.90;;;18.00;99.90;;;;;;5015871;28;20029;-83
2022/10/28 00:18:59;;;;;;;1999.90;999.90;;;18.00;99.90;;;;;;4997533;28;20028;-83
2022/10/28 00:21:27;;;;;;;1999.90;999.90;;;18.00;99.90;;;;;;5015435;28;20033;-83
2022/10/28 00:23:53;;;;;;;1999.90;999.90;;;18.10;99.90;;;;;;4997625;28;20432;-83
2022/10/28 00:26:22;;;;;;;1999.90;999.90;;;18.00;99.90;;;;;;4997935;28;20026;-83
2022/10/28 00:28:56;;;;;;;1999.90;999.90;;;18.00;99.90;;;;;;5006997;28;20081;-82
2022/10/28 00:31:24;;;;;;;1999.90;999.90;;;17.90;99.90;;;;;;4995423;28;20029;-83
2022/10/28 00:33:50;;;;;;;1999.90;999.90;;;17.90;99.90;;;;;;4996032;28;20023;-83
2022/10/28 00:36:21;;;;;;;1999.90;999.90;;;17.80;99.90;;;;;;4995792;28;20026;-83
2022/10/28 00:38:49;;;;;;;1999.90;999.90;;;17.90;99.90;;;;;;4995780;28;20097;-83
2022/10/28 00:41:30;;;;;;;1999.90;999.90;;;17.80;99.90;;;;;;4996733;28;20413;-83
2022/10/28 00:43:59;;;;;;;1999.90;999.90;;;17.80;99.90;;;;;;5015528;28;20029;-83
2022/10/28 00:46:41;;;;;;;1999.90;999.90;;;17.80;99.90;;;;;;4997275;28;20029;-83
2022/10/28 00:49:25;;;;;;;1999.90;999.90;;;17.70;99.90;;;;;;4997607;28;20032;-83
2022/10/28 00:51:58;;;;;;;1999.90;999.90;;;17.70;99.90;;;;;;5015998;28;20342;-83
2022/10/28 00:54:25;;;;;;;1999.90;999.90;;;17.60;99.90;;;;;;5018249;28;20390;-83
2022/10/28 00:56:55;;;;;;;1999.90;999.90;;;17.60;99.90;;;;;;5019153;28;20026;-83
2022/10/28 00:59:36;;;;;;;1999.90;999.90;;;17.60;99.90;;;;;;5019160;28;20032;-83
2022/10/28 01:02:03;;;;;;;1999.90;999.90;;;17.60;99.90;;;;;;5001658;28;20404;-83
2022/10/28 01:04:30;;;;;;;1999.90;999.90;;;17.50;99.90;;;;;;5019794;28;20020;-83
2022/10/28 01:06:57;;;;;;;1999.90;999.90;;;17.50;99.90;;;;;;5018934;28;20037;-83
2022/10/28 01:09:23;;;;;;;1999.90;999.90;;;17.50;99.90;;;;;;5018957;28;20108;-83
2022/10/28 01:11:55;;;;;;;1999.90;999.90;;;17.50;99.90;;;;;;5019646;28;20064;-82
2022/10/28 01:14:48;;;;;;;1999.90;999.90;;;17.50;99.90;;;;;;5019029;28;20018;-83
2022/10/28 01:17:49;;;;;;;1999.90;999.90;;;17.50;99.90;;;;;;5019001;28;20022;-83
2022/10/28 01:20:26;;;;;;;1999.90;999.90;;;17.50;99.90;;;;;;4959259;29;20031;-83
2022/10/28 01:23:09;;;;;;;1999.90;999.90;;;17.50;99.90;;;;;;5010331;28;20042;-83
2022/10/28 01:25:48;;;;;;;1999.90;999.90;;;17.50;99.90;;;;;;5001056;28;20037;-83
2022/10/28 01:28:22;;;;;;;1999.90;999.90;;;17.50;99.90;;;;;;4997303;28;20113;-82
2022/10/28 01:31:25;;;;;;;1999.90;999.90;;;17.50;99.90;;;;;;4979878;28;20070;-83
2022/10/28 01:34:06;;;;;;;1999.90;999.90;;;17.50;99.90;;;;;;5004124;28;20017;-83
2022/10/28 01:36:44;;;;;;;1999.90;999.90;;;17.40;99.90;;;;;;5017000;28;20033;-83
2022/10/28 01:39:59;;;;;;;1999.90;999.90;;;17.50;99.90;;;;;;5016291;28;20021;-83
2022/10/28 01:42:31;;;;;;;1999.90;999.90;;;17.50;99.90;;;;;;4994678;28;20509;-83
2022/10/28 01:45:03;;;;;;;1999.90;999.90;;;17.60;99.90;;;;;;5016930;28;20026;-83
2022/10/28 01:48:00;;;;;;;1999.90;999.90;;;17.60;99.90;;;;;;5016624;28;20034;-83
2022/10/28 01:50:39;;;;;;;1999.90;999.90;;;17.70;99.90;;;;;;5009152;28;20069;-83
2022/10/28 01:53:19;;;;;;;1999.90;999.90;;;17.70;99.90;;;;;;5015962;28;20095;-83
2022/10/28 01:55:49;;;;;;;1999.90;999.90;;;17.80;99.90;;;;;;5016398;28;20026;-83
2022/10/28 01:58:18;;;;;;;1999.90;999.90;;;17.90;99.90;;;;;;5034541;28;20476;-83
2022/10/28 02:00:45;;;;;;;1999.90;999.90;;;17.90;99.90;;;;;;5037296;28;20025;-83
2022/10/28 02:03:11;;;;;;;1999.90;999.90;;;18.00;99.90;;;;;;5036670;28;20025;-83
2022/10/28 02:05:58;;;;;;;1999.90;999.90;;;18.00;99.90;;;;;;5018526;28;20040;-82
2022/10/28 02:08:51;;;;;;;1999.90;999.90;;;17.90;99.90;;;;;;5035654;28;20032;-83
2022/10/28 02:11:22;;;;;;;;;;;18.00;99.90;;;;;;5036110;28;20120;-83
2022/10/28 02:14:07;;;;;;;1999.90;999.90;;;17.90;99.90;;;;;;5026775;28;19909;-82
2022/10/28 02:16:59;;;;;;;1999.90;999.90;;;18.00;99.90;;;;;;5017150;28;20097;-83
2022/10/28 02:19:46;;;;;;;1999.90;999.90;;;18.00;99.90;;;;;;5013806;28;20114;-83
2022/10/28 02:22:30;;;;;;;1999.90;999.90;;;18.10;99.90;;;;;;5016274;28;20485;-83
2022/10/28 02:25:35;;;;;;;1999.90;999.90;;;18.20;99.90;;;;;;4997346;28;20040;-82
2022/10/28 02:28:11;;;;;;;1999.90;999.90;;;18.20;99.90;;;;;;5017904;28;20053;-83
2022/10/28 02:30:44;;;;;;;1999.90;999.90;;;18.20;99.90;;;;;;5036559;28;20469;-83
2022/10/28 02:33:13;;;;;;;1999.90;999.90;;;18.20;99.90;;;;;;5018306;28;20026;-83
2022/10/28 02:35:48;;;;;;;1999.90;999.90;;;18.20;99.90;;;;;;5018596;28;20033;-82
2022/10/28 02:38:39;;;;;;;1999.90;999.90;;;18.20;99.90;;;;;;5018649;28;20036;-83
2022/10/28 02:41:26;;;;;;;1999.90;999.90;;;18.20;99.90;;;;;;5016860;28;20034;-83
2022/10/28 02:43:54;;;;;;;1999.90;999.90;;;18.20;99.90;;;;;;5014277;28;20034;-82
2022/10/28 02:46:21;;;;;;;1999.90;999.90;;;18.10;99.90;;;;;;4997433;28;20033;-82
2022/10/28 02:48:53;;;;;;;1999.90;999.90;;;18.10;99.90;;;;;;5014865;28;20378;-82
2022/10/28 02:51:23;;;;;;;1999.90;999.90;;;18.00;99.90;;;;;;5014477;28;20504;-83
2022/10/28 02:53:59;;;;;;;1999.90;999.90;;;18.00;99.90;;;;;;5024220;28;20284;-82
2022/10/28 02:56:28;;;;;;;1999.90;999.90;;;17.90;99.90;;;;;;5034578;28;20068;-82
2022/10/28 02:58:54;;;;;;;1999.90;999.90;;;17.90;99.90;;;;;;5017585;28;20026;-83
2022/10/28 03:01:19;;;;;;;1999.90;999.90;;;18.00;99.90;;;;;;5025134;28;20026;-82
2022/10/28 03:03:45;;;;;;;1999.90;999.90;;;18.10;99.90;;;;;;5014901;28;20087;-83
2022/10/28 03:06:11;;;;;;;1999.90;999.90;;;18.10;99.90;;;;;;5036700;28;20555;-82
2022/10/28 03:08:36;;;;;;;1999.90;999.90;;;18.10;99.90;;;;;;5015623;28;20030;-82
2022/10/28 03:11:02;;;;;;;1999.90;999.90;;;18.10;99.90;;;;;;4997569;28;20030;-85
2022/10/28 03:13:30;;;;;;;1999.90;999.90;;;18.30;99.90;;;;;;5012856;28;20132;-85
2022/10/28 03:15:56;;;;;;;1999.90;999.90;;;18.30;99.90;;;;;;5017118;28;20025;-85
2022/10/28 03:18:22;;;;;;;1999.90;999.90;;;18.40;99.90;;;;;;5018578;28;20038;-85
2022/10/28 03:20:47;;;;;;;1999.90;999.90;;;18.40;99.90;;;;;;5013508;28;20029;-85
2022/10/28 03:23:13;;;;;;;1999.90;999.90;;;18.50;99.90;;;;;;5013962;28;20109;-85
2022/10/28 03:25:38;;;;;;;1999.90;999.90;;;18.50;99.90;;;;;;5013854;28;20453;-85
2022/10/28 03:28:04;;;;;;;1999.90;999.90;;;18.70;99.90;;;;;;5013832;28;20030;-85
2022/10/28 03:30:30;;;;;;;1999.90;999.90;;;18.70;99.90;;;;;;5013171;28;20038;-85
2022/10/28 03:32:55;;;;;;;1999.90;999.90;;;18.80;99.90;;;;;;5013753;28;20105;-85
2022/10/28 03:35:21;;;;;;;1999.90;999.90;;;18.90;99.90;;;;;;5013597;28;20064;-85
2022/10/28 03:37:46;;;;;;;1999.90;999.90;;;18.90;99.90;;;;;;5013741;28;20096;-84
2022/10/28 03:40:12;;;;;;;1999.90;999.90;;;19.00;99.90;;;;;;5013842;28;20539;-85
2022/10/28 03:42:40;;;;;;;1999.90;999.90;;;19.10;99.90;;;;;;5013569;28;20022;-85
2022/10/28 03:45:07;;;;;;;1999.90;999.90;;;19.10;99.90;;;;;;5011789;28;20037;-84
2022/10/28 03:47:33;;;;;;;1999.90;999.90;;;19.10;99.90;;;;;;5014000;28;20117;-84
2022/10/28 03:49:59;;;;;;;1999.90;999.90;;;19.30;99.90;;;;;;5024792;28;20456;-85
2022/10/28 03:52:24;;;;;;;1999.90;999.90;;;19.30;99.90;;;;;;5018195;28;20034;-85
2022/10/28 03:54:50;;;;;;;1999.90;999.90;;;19.40;99.90;;;;;;5022094;28;20021;-84
2022/10/28 03:57:16;;;;;;;1999.90;999.90;;;19.50;99.90;;;;;;5017071;28;20059;-85
2022/10/28 03:59:41;;;;;;;1999.90;999.90;;;19.50;99.90;;;;;;5024279;28;20033;-84
2022/10/28 04:02:07;;;;;;;1999.90;999.90;;;19.40;99.90;;;;;;4997137;28;20021;-85
2022/10/28 04:04:32;;;;;;;1999.90;999.90;;;19.50;99.90;;;;;;5007410;28;20064;-84
2022/10/28 04:06:58;;;;;;;1999.90;999.90;;;19.40;99.90;;;;;;5010308;28;20382;-85
2022/10/28 04:09:24;;;;;;;1999.90;999.90;;;19.50;99.90;;;;;;5012717;28;20033;-85
2022/10/28 04:11:49;;;;;;;1999.90;999.90;;;19.50;99.90;;;;;;5012379;28;20034;-85
2022/10/28 04:14:15;;;;;;;1999.90;999.90;;;19.50;99.90;;;;;;5029734;28;20029;-84
2022/10/28 04:16:40;;;;;;;1999.90;999.90;;;19.60;99.90;;;;;;5031185;28;20028;-86
2022/10/28 04:19:06;;;;;;;1999.90;999.90;;;19.60;99.90;;;;;;5032061;28;20038;-85
2022/10/28 04:21:32;;;;;;;1999.90;999.90;;;19.50;99.90;;;;;;5031860;28;20040;-85
2022/10/28 04:23:58;;;;;;;1999.90;999.90;;;19.50;99.90;;;;;;5032354;28;20435;-85
2022/10/28 04:26:23;;;;;;;1999.90;999.90;;;19.50;99.90;;;;;;5032626;28;20052;-86
2022/10/28 04:28:49;;;;;;;1999.90;999.90;;;19.40;99.90;;;;;;5032430;28;20029;-85
2022/10/28 04:31:15;;;;;;;1999.90;999.90;;;19.40;99.90;;;;;;5030166;28;20029;-82
2022/10/28 04:33:40;;;;;;;1999.90;999.90;;;19.30;99.90;;;;;;5000936;28;20022;-82
2022/10/28 04:36:06;;;;;;;1999.90;999.90;;;19.20;99.90;;;;;;5012271;28;20025;-82
2022/10/28 04:38:32;;;;;;;1999.90;999.90;;;19.30;99.90;;;;;;5012608;28;20040;-82
2022/10/28 04:40:58;;;;;;;1999.90;999.90;;;19.30;99.90;;;;;;4994851;28;20026;-82
2022/10/28 04:43:23;;;;;;;1999.90;999.90;;;19.30;99.90;;;;;;5012920;28;20508;-82
2022/10/28 04:45:49;;;;;;;1999.90;999.90;;;19.30;99.90;;;;;;5011913;28;20061;-82
2022/10/28 04:48:14;;;;;;;1999.90;999.90;;;19.30;99.90;;;;;;5026073;28;20056;-82
2022/10/28 04:50:41;;;;;;;1999.90;999.90;;;19.30;99.90;;;;;;5031924;28;20025;-82
2022/10/28 04:53:06;;;;;;;1999.90;999.90;;;19.30;99.90;;;;;;5014203;28;20048;-82
2022/10/28 04:55:32;;;;;;;1999.90;999.90;;;19.30;99.90;;;;;;5032050;28;20030;-82
2022/10/28 04:57:59;;;;;;;1999.90;999.90;;;19.20;99.90;;;;;;5031852;28;20028;-83
2022/10/28 05:00:27;;;;;;;1999.90;999.90;;;19.20;99.90;;;;;;5014445;28;20174;-82
2022/10/28 05:02:53;;;;;;;1999.90;999.90;;;19.20;99.90;;;;;;5030889;28;20033;-82
2022/10/28 05:05:19;;;;;;;1999.90;999.90;;;19.20;99.90;;;;;;5028967;28;20117;-82
2022/10/28 05:07:44;;;;;;;1999.90;999.90;;;19.10;99.90;;;;;;5019140;28;20034;-82
2022/10/28 05:10:11;;;;;;;1999.90;999.90;;;19.10;99.90;;;;;;5012096;28;20038;-82
2022/10/28 05:12:40;;;;;;;1999.90;999.90;;;18.90;99.90;;;;;;4993758;28;20547;-82
2022/10/28 05:15:06;;;;;;;1999.90;999.90;;;18.90;99.90;;;;;;4994613;28;20025;-82
2022/10/28 05:17:32;;;;;;;1999.90;999.90;;;18.90;99.90;;;;;;5012093;28;20156;-83
2022/10/28 05:19:57;;;;;;;1999.90;999.90;;;18.90;99.90;;;;;;5011583;28;20113;-82
2022/10/28 05:22:23;;;;;;;1999.90;999.90;;;18.90;99.90;;;;;;5011856;28;20132;-82
2022/10/28 05:24:49;;;;;;;1999.90;999.90;;;18.90;99.90;;;;;;5011995;28;20026;-82
2022/10/28 05:27:15;;;;;;;1999.90;999.90;;;18.80;99.90;;;;;;5011024;28;20014;-83
2022/10/28 05:29:40;;;;;;;1999.90;999.90;;;18.80;99.90;;;;;;5011919;28;20053;-82
2022/10/28 05:32:06;;;;;;;1999.90;999.90;;;18.70;99.90;;;;;;5012032;28;20030;-82
2022/10/28 05:34:32;;;;;;;1999.90;999.90;;;18.70;99.90;;;;;;4993975;28;20025;-82
2022/10/28 05:36:57;;;;;;;1999.90;999.90;;;18.70;99.90;;;;;;5014034;28;20026;-82
2022/10/28 05:39:23;;;;;;;1999.90;999.90;;;18.60;99.90;;;;;;5015291;28;20034;-82
2022/10/28 05:41:49;;;;;;;1999.90;999.90;;;18.70;99.90;;;;;;5015530;28;20030;-83
2022/10/28 05:44:14;;;;;;;1999.90;999.90;;;18.60;99.90;;;;;;4998097;28;20485;-82
2022/10/28 05:46:40;;;;;;;1999.90;999.90;;;18.60;99.90;;;;;;5014938;28;20057;-82
2022/10/28 05:49:06;;;;;;;1999.90;999.90;;;18.50;99.90;;;;;;5015343;28;20040;-82
2022/10/28 05:51:31;;;;;;;1999.90;999.90;;;18.50;99.90;;;;;;5014974;28;20084;-82
2022/10/28 05:53:57;;;;;;;1999.90;999.90;;;18.50;99.90;;;;;;5034481;28;20069;-82
2022/10/28 05:56:22;;;;;;;1999.90;999.90;;;18.50;99.90;;;;;;5034980;28;20100;-82
2022/10/28 05:58:48;;;;;;;1999.90;999.90;;;18.50;99.90;;;;;;5035124;28;20031;-82
2022/10/28 06:01:15;;;;;;;1999.90;999.90;;;18.40;99.90;;;;;;5035048;28;20021;-82
2022/10/28 06:03:40;;;;;;;1999.90;999.90;;;18.30;99.90;;;;;;5035090;28;20029;-82
2022/10/28 06:06:06;;;;;;;1999.90;999.90;;;18.30;99.90;;;;;;5033926;28;20492;-82
2022/10/28 06:08:32;;;;;;;1999.90;999.90;;;18.20;99.90;;;;;;4996924;28;20101;-82
2022/10/28 06:10:58;;;;;;;1999.90;999.90;;;18.20;99.90;;;;;;5002142;28;20038;-82
2022/10/28 06:13:23;;;;;;;1999.90;999.90;;;18.10;99.90;;;;;;5013024;28;20026;-82
2022/10/28 06:15:53;;;;;;;1999.90;999.90;;;18.20;99.90;;;;;;5017392;28;20014;-82
2022/10/28 06:18:20;;;;;;;1999.90;999.90;;;18.30;99.90;;;;;;5008840;28;20400;-82
2022/10/28 06:20:56;;;;;;;1999.90;999.90;;;18.30;99.90;;;;;;4994364;28;20484;-82
2022/10/28 06:23:23;;;;;;;1999.90;999.90;;;18.30;99.90;;;;;;5014982;28;20033;-82
2022/10/28 06:25:49;;;;;;;1999.90;999.90;;;18.30;99.90;;;;;;4993648;28;20416;-81
2022/10/28 06:28:15;;;;;;;1999.90;999.90;;;18.30;99.90;;;;;;5021950;28;20030;-84
2022/10/28 06:30:41;;;;;;;1999.90;999.90;;;18.30;99.90;;;;;;5021760;28;20075;-85
2022/10/28 06:33:07;;;;;;;1999.90;999.90;;;18.30;99.90;;;;;;5011352;28;20030;-84
2022/10/28 06:35:32;;;;;;;1999.90;999.90;;;18.30;99.90;;;;;;5010904;28;20084;-85
2022/10/28 06:37:58;;;;;;;1999.90;999.90;;;18.30;99.90;;;;;;5011375;28;20143;-84
2022/10/28 06:40:25;;;;;;;1999.90;999.90;;;18.20;99.90;;;;;;5010360;28;20038;-84
2022/10/28 06:43:03;;;;;;;1999.90;999.90;;;18.10;99.90;;;;;;4989928;28;20029;-84
2022/10/28 06:45:30;;;;;;;1999.90;999.90;;;18.10;99.90;;;;;;4993307;28;20109;-85
2022/10/28 06:48:02;;;;;;;1999.90;999.90;;;18.10;99.90;;;;;;5012760;28;20697;-83
2022/10/28 06:50:28;;;;;;;1999.90;999.90;;;18.10;99.90;;;;;;5015710;28;20490;-82
2022/10/28 06:52:58;;;;;;;1999.90;999.90;;;18.20;99.90;;;;;;5013836;28;20493;-82
2022/10/28 06:55:25;;;;;;;1999.90;999.90;;;18.30;99.90;;;;;;5011148;28;20033;-82
2022/10/28 06:57:51;;;;;;;1999.90;999.90;;;18.40;99.90;;;;;;5024445;28;20044;-82
2022/10/28 07:00:16;;;;;;;1999.90;999.90;;;18.50;99.90;;;;;;5018392;28;20025;-80
2022/10/28 07:02:42;;;;;;;1999.90;999.90;;;18.50;99.90;;;;;;5008185;28;20184;-81
2022/10/28 07:05:08;;;;;;;1999.90;999.90;;;18.50;99.90;;;;;;5007988;28;20045;-87
2022/10/28 07:07:37;;;;;;;1999.90;999.90;;;18.50;99.90;;;;;;5005190;28;20049;-84
2022/10/28 07:10:05;;;;;;;1999.90;999.90;;;18.50;99.90;;;;;;5003191;28;20083;-80
2022/10/28 07:12:31;;;;;;;1999.90;999.90;;;18.50;99.90;;;;;;5001814;28;20022;-80
2022/10/28 07:14:57;;;;;;;1999.90;999.90;;;18.60;99.90;;;;;;5004203;28;20033;-78
2022/10/28 07:17:23;;;;;;;1999.90;999.90;;;18.60;99.90;;;;;;5001407;28;20065;-80
2022/10/28 07:19:49;;;;;;;1999.90;999.90;;;18.70;99.90;;;;;;5006687;28;20029;-81
2022/10/28 07:22:15;;;;;;;1999.90;999.90;;;18.70;99.90;;;;;;5006911;28;20017;-82
2022/10/28 07:24:40;;;;;;;1999.90;999.90;;;18.80;99.90;;;;;;4986507;28;21364;-79
2022/10/28 07:27:08;;;;;;;1999.90;999.90;;;18.80;99.90;;;;;;4983830;28;20426;-78
2022/10/28 07:29:33;;;;;;;1999.90;999.90;;;18.80;99.90;;;;;;5002938;28;20121;-77
2022/10/28 07:31:59;;;;;;;1999.90;999.90;;;18.80;99.90;;;;;;5007342;28;20045;-79
2022/10/28 07:34:25;;;;;;;1999.90;999.90;;;18.90;99.90;;;;;;5004093;28;20464;-79
2022/10/28 07:36:52;;;;;;;1999.90;999.90;;;18.90;99.90;;;;;;5005589;28;20029;-80
2022/10/28 07:39:18;;;;;;;1999.90;999.90;;;18.90;99.90;;;;;;5006013;28;20092;-78
2022/10/28 07:41:43;;;;;;;1999.90;999.90;;;18.90;99.90;;;;;;5005773;28;20036;-82
2022/10/28 07:44:09;;;;;;;1999.90;999.90;;;19.00;99.90;;;;;;5004930;28;20386;-77
2022/10/28 07:46:35;;;;;;;1999.90;999.90;;;19.00;99.90;;;;;;5006461;28;20183;-76
2022/10/28 07:49:00;;;;;;;1999.90;999.90;;;19.00;99.90;;;;;;5005575;28;20030;-80
2022/10/28 07:51:26;;;;;;;1999.90;999.90;;;19.10;99.90;;;;;;4982374;28;20030;-81
2022/10/28 07:53:52;;;;;;;1999.90;999.90;;;19.10;99.90;;;;;;5006726;28;20062;-79
2022/10/28 07:56:18;;;;;;;1999.90;999.90;;;19.20;99.90;;;;;;5005794;28;20049;-81
2022/10/28 07:58:44;;;;;;;1999.90;999.90;;;19.30;99.90;;;;;;5010733;28;20030;-81
2022/10/28 08:01:12;;;;;;;1999.90;999.90;;;19.30;99.90;;;;;;4988162;28;20030;-81
2022/10/28 08:03:38;;;;;;;1999.90;999.90;;;19.40;99.90;;;;;;4986588;28;20033;-81
2022/10/28 08:06:09;;;;;;;1999.90;999.90;;;19.50;99.90;;;;;;5005628;28;20037;-83
2022/10/28 08:08:35;;;;;;;1999.90;999.90;;;19.50;99.90;;;;;;5005309;28;20450;-82
2022/10/28 08:11:15;;;;;;;1999.90;999.90;;;19.60;99.90;;;;;;5005541;28;20030;-80
2022/10/28 08:13:41;;;;;;;1999.90;999.90;;;19.60;99.90;;;;;;5003542;28;20022;-80
2022/10/28 08:16:08;;;;;;;1999.90;999.90;;;19.70;99.90;;;;;;4987127;28;20491;-83
2022/10/28 08:18:34;;;;;;;1999.90;999.90;;;19.70;99.90;;;;;;5005123;28;20036;-81
2022/10/28 08:21:01;;;;;;;1999.90;999.90;;;19.70;99.90;;;;;;5004933;28;20030;-82
2022/10/28 08:23:28;;;;;;;1999.90;999.90;;;19.80;99.90;;;;;;5004125;28;20080;-78
2022/10/28 08:25:54;;;;;;;1999.90;999.90;;;19.80;99.90;;;;;;5003274;28;20448;-80
2022/10/28 08:28:20;;;;;;;1999.90;999.90;;;19.80;99.90;;;;;;5003384;28;20033;-79
2022/10/28 08:30:47;;;;;;;1999.90;999.90;;;19.90;99.90;;;;;;5002845;28;20655;-78
2022/10/28 08:33:14;;;;;;;1999.90;999.90;;;19.90;99.90;;;;;;5001300;28;20493;-78
2022/10/28 08:35:41;;;;;;;1999.90;999.90;;;20.00;99.90;;;;;;5005411;28;20108;-79
2022/10/28 08:38:07;;;;;;;1999.90;999.90;;;20.20;99.90;;;;;;5004861;28;20044;-78
2022/10/28 08:40:57;;;;;;;1999.90;999.90;;;20.30;99.90;;;;;;5005722;28;20065;-80
2022/10/28 08:43:57;;;;;;;1999.90;999.90;;;20.50;99.90;;;;;;4983559;28;20045;-77
2022/10/28 08:46:41;;;;;;;1999.90;999.90;;;20.70;99.90;;;;;;5004715;28;20112;-78
2022/10/28 08:49:13;;;;;;;1999.90;999.90;;;20.80;99.90;;;;;;5002129;28;20535;-78
2022/10/28 08:52:04;;;;;;;1999.90;999.90;;;20.90;99.90;;;;;;5003490;28;20795;-78
2022/10/28 08:54:34;;;;;;;1999.90;999.90;;;21.10;99.90;;;;;;5002673;28;20378;-77
2022/10/28 08:57:03;;;;;;;1999.90;999.90;;;21.10;99.90;;;;;;5001342;28;20025;-77
2022/10/28 08:59:36;;;;;;;1999.90;999.90;;;21.00;99.90;;;;;;5001861;28;20388;-77
2022/10/28 09:02:27;;;;;;;1999.90;999.90;;;21.10;99.90;;;;;;4987214;28;20033;-78
2022/10/28 09:05:14;;;;;;;1999.90;999.90;;;21.20;99.90;;;;;;4986100;28;20038;-77
2022/10/28 09:07:40;;;;;;;1999.90;999.90;;;21.20;99.90;;;;;;5004123;28;20026;-78
2022/10/28 09:10:06;;;;;;;1999.90;999.90;;;21.20;99.90;;;;;;5002607;28;20038;-80
2022/10/28 09:13:00;;;;;;;1999.90;999.90;;;21.40;99.90;;;;;;5005647;28;20074;-78
2022/10/28 09:15:41;;;;;;;1999.90;999.90;;;21.60;99.90;;;;;;5005917;28;20508;-78
2022/10/28 09:18:24;;;;;;;1999.90;999.90;;;21.90;99.90;;;;;;5008474;28;20092;-79
2022/10/28 09:20:53;;;;;;;1999.90;999.90;;;22.00;99.90;;;;;;5003370;28;20172;-78
2022/10/28 09:23:27;;;;;;;1999.90;999.90;;;22.00;99.90;;;;;;5005039;28;20141;-78
2022/10/28 09:26:38;;;;;;;1999.90;999.90;;;22.20;99.90;;;;;;4986705;28;20801;-78
2022/10/28 09:29:18;;;;;;;1999.90;999.90;;;22.20;99.90;;;;;;5003050;28;20049;-79
2022/10/28 09:31:52;;;;;;;1999.90;999.90;;;22.20;99.90;;;;;;4985343;28;20117;-76
2022/10/28 09:35:05;;;;;;;1999.90;999.90;;;22.10;99.90;;;;;;5009363;28;20022;-78
2022/10/28 09:37:37;;;;;;;1999.90;999.90;;;22.10;99.90;;;;;;4909777;29;20024;-79
2022/10/28 09:40:22;;;;;;;1999.90;999.90;;;22.00;99.90;;;;;;4909244;29;20032;-81
2022/10/28 09:43:10;;;;;;;1999.90;999.90;;;21.90;99.90;;;;;;4908357;29;20051;-78
2022/10/28 09:45:42;;;;;;;1999.90;999.90;;;21.90;99.90;;;;;;4908540;29;20954;-78
2022/10/28 09:48:26;;;;;;;1999.90;999.90;;;21.80;99.90;;;;;;4909243;29;20044;-77
2022/10/28 09:50:54;;;;;;;1999.90;999.90;;;21.80;99.90;;;;;;4911772;29;20122;-78
2022/10/28 09:53:39;;;;;;;1999.90;999.90;;;21.70;99.90;;;;;;4912553;29;20074;-79
2022/10/28 09:56:06;;;;;;;1999.90;999.90;;;21.80;99.90;;;;;;4907743;29;20044;-78
2022/10/28 09:58:34;;;;;;;1999.90;999.90;;;21.90;99.90;;;;;;4909420;29;20036;-78
2022/10/28 10:01:01;;;;;;;1999.90;999.90;;;21.80;99.90;;;;;;4910759;29;20099;-78
2022/10/28 10:03:26;;;;;;;1999.90;999.90;;;21.90;99.90;;;;;;4909812;29;20524;-78
2022/10/28 10:05:57;;;;;;;1999.90;999.90;;;22.10;99.90;;;;;;4908691;29;20039;-78
2022/10/28 10:08:23;;;;;;;1999.90;999.90;;;22.20;99.90;;;;;;4967163;28;20049;-78
2022/10/28 10:11:04;;;;;;;1999.90;999.90;;;22.30;99.90;;;;;;5004879;28;20041;-79
2022/10/28 10:13:39;;;;;;;1999.90;999.90;;;22.30;99.90;;;;;;5003850;28;20053;-79
2022/10/28 10:16:20;;;;;;;1999.90;999.90;;;22.30;99.90;;;;;;5004513;28;20025;-80
2022/10/28 10:18:50;;;;;;;1999.90;999.90;;;22.40;99.90;;;;;;5004716;28;20030;-78
2022/10/28 10:21:19;;;;;;;1999.90;999.90;;;22.40;99.90;;;;;;5004627;28;20037;-78
2022/10/28 10:23:44;;;;;;;1999.90;999.90;;;22.40;99.90;;;;;;5003225;28;20060;-82
2022/10/28 10:26:15;;;;;;;1999.90;999.90;;;22.40;99.90;;;;;;5007926;28;20101;-78
2022/10/28 10:28:46;;;;;;;1999.90;999.90;;;22.40;99.90;;;;;;5008879;28;20045;-79
2022/10/28 10:31:24;;;;;;;1999.90;999.90;;;22.40;99.90;;;;;;5006363;28;20025;-79
2022/10/28 10:33:53;;;;;;;1999.90;999.90;;;22.50;99.90;;;;;;5005662;28;20125;-79
2022/10/28 10:36:22;;;;;;;1999.90;999.90;;;22.70;99.90;;;;;;5007017;28;20723;-78
2022/10/28 10:38:53;;;;;;;1999.90;999.90;;;22.90;99.90;;;;;;4988713;28;20030;-78
2022/10/28 10:41:39;;;;;;;1999.90;999.90;;;23.00;99.90;;;;;;5007274;28;20034;-79
2022/10/28 10:44:20;;;;;;;1999.90;999.90;;;22.90;99.90;;;;;;5004816;28;20436;-80
2022/10/28 10:46:58;;;;;;;1999.90;999.90;;;22.90;99.90;;;;;;5008295;28;20061;-79
2022/10/28 10:49:25;;;;;;;1999.90;999.90;;;22.90;99.90;;;;;;4991535;28;20042;-80
2022/10/28 10:51:56;;;;;;;1999.90;999.90;;;22.90;99.90;;;;;;5010145;28;20030;-78
2022/10/28 10:54:27;;;;;;;1999.90;999.90;;;23.20;99.90;;;;;;5014646;28;20053;-79
2022/10/28 10:56:53;;;;;;;1999.90;999.90;;;23.30;99.90;;;;;;5009174;28;20132;-78
2022/10/28 10:59:23;;;;;;;1999.90;999.90;;;23.20;99.90;;;;;;5008976;28;20037;-79
2022/10/28 11:01:49;;;;;;;1999.90;999.90;;;23.10;99.90;;;;;;5010913;28;20108;-78
2022/10/28 11:04:18;;;;;;;1999.90;999.90;;;23.20;99.90;;;;;;4997530;28;20034;-77
2022/10/28 11:06:52;;;;;;;1999.90;999.90;;;23.40;99.90;;;;;;5011028;28;20030;-77
2022/10/28 11:09:41;;;;;;;1999.90;999.90;;;23.30;99.90;;;;;;5017390;28;20040;-78
2022/10/28 11:12:37;;;;;;;1999.90;999.90;;;23.30;99.90;;;;;;4991872;28;20568;-78
2022/10/28 11:15:15;;;;;;;1999.90;999.90;;;23.10;99.90;;;;;;5010496;28;20114;-77
2022/10/28 11:17:54;;;;;;;1999.90;999.90;;;22.90;99.90;;;;;;5010048;28;20030;-77
2022/10/28 11:20:29;;;;;;;1999.90;999.90;;;22.90;99.90;;;;;;4992341;28;20030;-79
2022/10/28 11:23:26;;;;;;;1999.90;999.90;;;23.10;99.90;;;;;;5014613;28;20101;-80
2022/10/28 11:25:54;;;;;;;1999.90;999.90;;;23.10;99.90;;;;;;5011551;28;20080;-79
2022/10/28 11:28:44;;;;;;;1999.90;999.90;;;22.90;99.90;;;;;;5011516;28;20487;-79
2022/10/28 11:31:28;;;;;;;1999.90;999.90;;;23.00;99.90;;;;;;5013485;28;20061;-79
2022/10/28 11:34:27;;;;;;;1999.90;999.90;;;23.10;99.90;;;;;;5008373;28;20109;-80
2022/10/28 11:36:58;;;;;;;1999.90;999.90;;;23.20;99.90;;;;;;5010370;28;20034;-80
2022/10/28 11:39:47;;;;;;;1999.90;999.90;;;23.20;99.90;;;;;;5016324;28;20026;-79
2022/10/28 11:42:32;;;;;;;1999.90;999.90;;;23.00;99.90;;;;;;5017352;28;20040;-80
2022/10/28 11:45:10;;;;;;;1999.90;999.90;;;22.90;99.90;;;;;;4998612;28;20030;-80
2022/10/28 11:48:08;;;;;;;1999.90;999.90;;;23.00;99.90;;;;;;5019790;28;20037;-80
2022/10/28 11:51:00;;;;;;;1999.90;999.90;;;23.30;99.90;;;;;;4961943;28;20045;-80
2022/10/28 11:53:57;;;;;;;1999.90;999.90;;;23.40;99.90;;;;;;4967410;28;20489;-80
2022/10/28 11:56:35;;;;;;;1999.90;999.90;;;23.50;99.90;;;;;;5005180;28;20084;-80
2022/10/28 11:59:13;;;;;;;1999.90;999.90;;;23.30;99.90;;;;;;5005534;28;20033;-80
2022/10/28 12:01:47;;;;;;;1999.90;999.90;;;23.20;99.90;;;;;;4990153;28;20040;-82
2022/10/28 12:04:36;;;;;;;1999.90;999.90;;;23.40;99.90;;;;;;4991274;28;20034;-81
2022/10/28 12:07:26;;;;;;;1999.90;999.90;;;23.50;99.90;;;;;;5013245;28;20478;-81
2022/10/28 12:10:06;;;;;;;1999.90;999.90;;;23.30;99.90;;;;;;5013164;28;20495;-79
2022/10/28 12:12:42;;;;;;;1999.90;999.90;;;23.30;99.90;;;;;;4991374;28;20100;-79
2022/10/28 12:15:40;;;;;;;1999.90;999.90;;;23.30;99.90;;;;;;5007401;28;20026;-79
2022/10/28 12:18:34;;;;;;;1999.90;999.90;;;23.20;99.90;;;;;;4984169;28;20047;-80
2022/10/28 12:21:24;;;;;;;1999.90;999.90;;;23.20;99.90;;;;;;4954443;28;20042;-81
2022/10/28 12:23:53;;;;;;;1999.90;999.90;;;23.30;99.90;;;;;;5008169;28;20022;-80